createdAt,value
2018-12-31T00:00:09.598Z,102473.84
2018-12-31T00:02:39.476Z,102478.47
2018-12-31T00:05:08.924Z,102478.63
2018-12-31T00:07:38.386Z,102478.81
2018-12-31T00:10:07.511Z,102483.09
2018-12-31T00:12:37.011Z,102476.59
2018-12-31T00:15:12.533Z,102477.61
2018-12-31T00:17:41.514Z,102474.86
2018-12-31T00:20:10.933Z,102475.38
2018-12-31T00:22:40.375Z,102484.46
2018-12-31T00:25:09.944Z,102481.20
2018-12-31T00:27:39.711Z,102475.88
2018-12-31T00:30:09.359Z,102477.25
2018-12-31T00:32:39.235Z,102474.16
2018-12-31T00:35:08.696Z,102482.36
2018-12-31T00:37:38.179Z,102480.28
2018-12-31T00:40:07.671Z,102486.78
2018-12-31T00:42:37.134Z,102491.77
2018-12-31T00:45:06.907Z,102489.88
2018-12-31T00:47:36.519Z,102492.46
2018-12-31T00:50:06.228Z,102493.67
2018-12-31T00:52:35.738Z,102499.16
2018-12-31T00:55:05.227Z,102494.37
2018-12-31T00:57:34.556Z,102497.81
2018-12-31T01:00:04.075Z,102496.61
2018-12-31T01:02:34.594Z,102495.78
2018-12-31T01:05:04.160Z,102494.05
2018-12-31T01:07:33.606Z,102492.36
2018-12-31T01:10:03.194Z,102489.30
2018-12-31T01:12:32.930Z,102492.07
2018-12-31T01:15:02.868Z,102495.00
2018-12-31T01:17:32.334Z,102496.20
2018-12-31T01:20:02.330Z,102493.14
2018-12-31T01:22:31.795Z,102496.94
2018-12-31T01:25:01.010Z,102501.59
2018-12-31T01:27:30.465Z,102506.41
2018-12-31T01:29:59.826Z,102501.77
2018-12-31T01:32:28.935Z,102505.22
2018-12-31T01:34:58.292Z,102502.86
2018-12-31T01:37:27.655Z,102504.97
2018-12-31T01:39:57.170Z,102505.69
2018-12-31T01:42:26.670Z,102500.05
2018-12-31T01:44:56.190Z,102498.69
2018-12-31T01:47:25.816Z,102494.10
2018-12-31T01:49:55.165Z,102507.16
2018-12-31T01:52:24.584Z,102505.47
2018-12-31T01:54:54.076Z,102500.69
2018-12-31T01:57:23.351Z,102500.34
2018-12-31T01:59:52.806Z,102498.09
2018-12-31T02:02:22.359Z,102507.20
2018-12-31T02:05:04.465Z,102508.59
2018-12-31T02:07:33.864Z,102514.06
2018-12-31T02:10:03.702Z,102517.16
2018-12-31T02:12:33.162Z,102514.42
2018-12-31T02:15:03.436Z,102523.31
2018-12-31T02:17:32.709Z,102528.97
2018-12-31T02:20:02.186Z,102527.95
2018-12-31T02:22:31.647Z,102527.73
2018-12-31T02:25:01.237Z,102532.83
2018-12-31T02:27:30.825Z,102541.02
2018-12-31T02:30:00.438Z,102539.80
2018-12-31T02:32:29.968Z,102541.63
2018-12-31T02:34:59.475Z,102546.06
2018-12-31T02:37:29.099Z,102547.92
2018-12-31T02:39:58.604Z,102552.84
2018-12-31T02:42:27.975Z,102555.20
2018-12-31T02:44:57.503Z,102550.55
2018-12-31T02:47:26.866Z,102546.95
2018-12-31T02:49:56.418Z,102557.22
2018-12-31T02:52:26.009Z,102560.62
2018-12-31T02:54:55.545Z,102563.53
2018-12-31T02:57:24.918Z,102562.73
2018-12-31T02:59:54.328Z,102559.95
2018-12-31T03:02:23.176Z,102563.18
2018-12-31T03:04:52.699Z,102560.24
2018-12-31T03:07:22.709Z,102555.62
2018-12-31T03:09:51.945Z,102561.61
2018-12-31T03:12:20.767Z,102551.98
2018-12-31T03:14:53.798Z,102557.98
2018-12-31T03:17:22.856Z,102553.70
2018-12-31T03:19:51.785Z,102555.04
2018-12-31T03:22:21.285Z,102560.80
2018-12-31T03:24:50.742Z,102552.54
2018-12-31T03:27:20.204Z,102556.97
2018-12-31T03:29:50.002Z,102552.84
2018-12-31T03:32:19.435Z,102556.92
2018-12-31T03:34:48.927Z,102563.38
2018-12-31T03:37:18.489Z,102561.11
2018-12-31T03:39:47.939Z,102571.04
2018-12-31T03:42:17.327Z,102563.64
2018-12-31T03:44:46.833Z,102566.18
2018-12-31T03:47:16.413Z,102561.17
2018-12-31T03:49:45.855Z,102564.37
2018-12-31T03:52:15.471Z,102556.61
2018-12-31T03:54:44.978Z,102551.45
2018-12-31T03:57:14.996Z,102543.53
2018-12-31T03:59:44.453Z,102540.45
2018-12-31T04:02:13.888Z,102541.11
2018-12-31T04:04:43.305Z,102537.00
2018-12-31T04:07:13.039Z,102535.94
2018-12-31T04:09:42.596Z,102542.43
2018-12-31T04:12:12.048Z,102542.13
2018-12-31T04:14:41.523Z,102544.50
2018-12-31T04:17:10.901Z,102541.41
2018-12-31T04:19:40.116Z,102539.73
2018-12-31T04:22:09.621Z,102541.61
2018-12-31T04:24:39.020Z,102540.59
2018-12-31T04:27:08.414Z,102537.86
2018-12-31T04:29:37.875Z,102540.95
2018-12-31T04:32:07.388Z,102547.64
2018-12-31T04:34:36.819Z,102541.15
2018-12-31T04:37:06.439Z,102545.61
2018-12-31T04:39:35.262Z,102545.26
2018-12-31T04:42:04.613Z,102538.06
2018-12-31T04:44:34.241Z,102537.20
2018-12-31T04:47:03.858Z,102538.56
2018-12-31T04:49:33.101Z,102535.83
2018-12-31T04:52:02.557Z,102541.30
2018-12-31T04:54:32.089Z,102544.05
2018-12-31T04:57:01.474Z,102549.67
2018-12-31T04:59:31.156Z,102540.59
2018-12-31T05:02:00.590Z,102539.23
2018-12-31T05:04:29.957Z,102543.19
2018-12-31T05:06:59.273Z,102543.34
2018-12-31T05:09:28.524Z,102547.80
2018-12-31T05:11:58.368Z,102546.08
2018-12-31T05:14:27.830Z,102549.83
2018-12-31T05:16:57.197Z,102545.88
2018-12-31T05:19:26.612Z,102553.73
2018-12-31T05:21:56.145Z,102555.97
2018-12-31T05:24:25.573Z,102555.97
2018-12-31T05:26:54.981Z,102555.61
2018-12-31T05:29:24.496Z,102567.12
2018-12-31T05:31:54.013Z,102562.66
2018-12-31T05:34:23.332Z,102566.41
2018-12-31T05:36:53.174Z,102570.17
2018-12-31T05:39:22.535Z,102574.94
2018-12-31T05:41:52.014Z,102578.69
2018-12-31T05:44:21.488Z,102570.62
2018-12-31T05:46:50.983Z,102580.21
2018-12-31T05:49:20.659Z,102579.03
2018-12-31T05:51:50.337Z,102576.80
2018-12-31T05:54:19.673Z,102581.08
2018-12-31T05:56:49.070Z,102580.91
2018-12-31T05:59:18.677Z,102582.27
2018-12-31T06:01:48.124Z,102584.15
2018-12-31T06:04:17.673Z,102586.03
2018-12-31T06:06:47.195Z,102586.53
2018-12-31T06:09:16.604Z,102583.44
2018-12-31T06:11:46.105Z,102585.83
2018-12-31T06:14:16.121Z,102594.34
2018-12-31T06:16:45.879Z,102602.56
2018-12-31T06:19:15.215Z,102600.83
2018-12-31T06:21:44.610Z,102607.98
2018-12-31T06:24:13.916Z,102603.88
2018-12-31T06:26:43.641Z,102615.33
2018-12-31T06:29:13.026Z,102621.97
2018-12-31T06:31:42.811Z,102619.23
2018-12-31T06:34:12.633Z,102626.88
2018-12-31T06:36:42.207Z,102626.36
2018-12-31T06:39:11.709Z,102616.06
2018-12-31T06:41:41.250Z,102618.59
2018-12-31T06:44:10.567Z,102621.12
2018-12-31T06:46:40.018Z,102619.40
2018-12-31T06:49:09.477Z,102626.89
2018-12-31T06:51:38.812Z,102631.66
2018-12-31T06:54:08.280Z,102633.17
2018-12-31T06:56:37.923Z,102639.16
2018-12-31T06:59:07.411Z,102631.95
2018-12-31T07:01:36.762Z,102637.94
2018-12-31T07:04:06.155Z,102635.02
2018-12-31T07:06:35.417Z,102634.84
2018-12-31T07:09:05.685Z,102632.28
2018-12-31T07:11:35.246Z,102634.30
2018-12-31T07:14:04.658Z,102632.23
2018-12-31T07:16:34.420Z,102647.27
2018-12-31T07:19:03.948Z,102645.55
2018-12-31T07:21:33.429Z,102647.57
2018-12-31T07:24:02.794Z,102642.39
2018-12-31T07:26:32.215Z,102644.77
2018-12-31T07:29:01.702Z,102646.44
2018-12-31T07:31:31.092Z,102653.92
2018-12-31T07:34:00.478Z,102655.98
2018-12-31T07:36:29.763Z,102661.09
2018-12-31T07:38:59.309Z,102662.97
2018-12-31T07:41:30.242Z,102659.52
2018-12-31T07:43:59.941Z,102663.77
2018-12-31T07:46:29.359Z,102664.06
2018-12-31T07:48:58.881Z,102673.56
2018-12-31T07:51:30.944Z,102670.73
2018-12-31T07:54:00.340Z,102681.37
2018-12-31T07:56:29.782Z,102679.58
2018-12-31T07:58:59.221Z,102687.86
2018-12-31T08:01:28.705Z,102693.50
2018-12-31T08:03:58.242Z,102690.59
2018-12-31T08:06:27.975Z,102691.92
2018-12-31T08:08:57.408Z,102694.94
2018-12-31T08:11:26.954Z,102698.97
2018-12-31T08:13:57.066Z,102706.45
2018-12-31T08:16:26.901Z,102706.80
2018-12-31T08:18:57.295Z,102702.78
2018-12-31T08:21:27.061Z,102710.91
2018-12-31T08:23:56.968Z,102713.55
2018-12-31T08:26:26.684Z,102712.11
2018-12-31T08:28:56.171Z,102718.52
2018-12-31T08:31:25.714Z,102721.83
2018-12-31T08:33:55.349Z,102722.08
2018-12-31T08:36:24.907Z,102724.02
2018-12-31T08:38:54.384Z,102724.95
2018-12-31T08:41:23.977Z,102728.13
2018-12-31T08:43:53.467Z,102733.98
2018-12-31T08:46:23.194Z,102728.25
2018-12-31T08:49:01.160Z,102732.42
2018-12-31T08:51:31.197Z,102740.55
2018-12-31T08:54:00.953Z,102746.95
2018-12-31T08:56:30.337Z,102748.89
2018-12-31T08:58:59.636Z,102748.77
2018-12-31T09:01:29.828Z,102752.14
2018-12-31T09:03:59.505Z,102753.66
2018-12-31T09:06:29.253Z,102754.08
2018-12-31T09:08:58.847Z,102758.45
2018-12-31T09:11:28.277Z,102763.19
2018-12-31T09:13:57.366Z,102771.37
2018-12-31T09:16:27.301Z,102770.28
2018-12-31T09:18:56.585Z,102768.00
2018-12-31T09:21:27.355Z,102768.78
2018-12-31T09:23:57.245Z,102777.69
2018-12-31T09:26:26.620Z,102776.77
2018-12-31T09:28:56.184Z,102778.75
2018-12-31T09:31:26.305Z,102775.59
2018-12-31T09:33:55.655Z,102777.17
2018-12-31T09:36:25.777Z,102779.30
2018-12-31T09:38:55.545Z,102779.37
2018-12-31T09:41:25.627Z,102783.42
2018-12-31T09:43:55.845Z,102782.80
2018-12-31T09:46:25.384Z,102784.72
2018-12-31T09:48:54.795Z,102775.41
2018-12-31T09:51:24.815Z,102774.00
2018-12-31T09:53:54.585Z,102782.75
2018-12-31T09:56:24.635Z,102778.12
2018-12-31T09:58:54.547Z,102779.03
2018-12-31T10:01:24.347Z,102781.05
2018-12-31T10:03:54.138Z,102777.97
2018-12-31T10:06:24.066Z,102790.36
2018-12-31T10:08:53.864Z,102783.05
2018-12-31T10:11:23.584Z,102780.09
2018-12-31T10:13:53.406Z,102790.77
2018-12-31T10:16:23.315Z,102783.59
2018-12-31T10:18:53.325Z,102786.58
2018-12-31T10:21:28.075Z,102786.25
2018-12-31T10:23:57.754Z,102782.31
2018-12-31T10:26:33.665Z,102790.22
2018-12-31T10:29:03.754Z,102791.29
2018-12-31T10:31:34.258Z,102790.94
2018-12-31T10:34:03.777Z,102791.80
2018-12-31T10:36:33.766Z,102794.36
2018-12-31T10:39:03.465Z,102792.98
2018-12-31T10:41:33.335Z,102793.16
2018-12-31T10:44:03.065Z,102797.09
2018-12-31T10:46:32.544Z,102795.38
2018-12-31T10:49:02.506Z,102792.23
2018-12-31T10:51:31.856Z,102786.18
2018-12-31T10:54:01.444Z,102789.44
2018-12-31T10:56:37.276Z,102778.52
2018-12-31T10:59:08.036Z,102786.03
2018-12-31T11:01:40.023Z,102784.78
2018-12-31T11:04:12.104Z,102792.72
2018-12-31T11:06:50.783Z,102784.73
2018-12-31T11:09:23.203Z,102783.32
2018-12-31T11:11:57.774Z,102783.89
2018-12-31T11:14:30.034Z,102784.14
2018-12-31T11:17:01.233Z,102788.16
2018-12-31T11:19:34.463Z,102774.66
2018-12-31T11:22:07.694Z,102782.13
2018-12-31T11:24:40.234Z,102782.03
2018-12-31T11:27:13.714Z,102779.63
2018-12-31T11:29:47.084Z,102773.84
2018-12-31T11:32:36.765Z,102775.34
2018-12-31T11:35:34.403Z,102776.45
2018-12-31T11:38:08.633Z,102768.00
2018-12-31T11:40:41.847Z,102764.91
2018-12-31T11:43:24.974Z,102757.11
2018-12-31T11:46:16.404Z,102750.02
2018-12-31T11:48:56.103Z,102742.58
2018-12-31T11:51:48.033Z,102738.19
2018-12-31T12:02:37.114Z,102741.34
2018-12-31T12:05:29.822Z,102740.02
2018-12-31T12:08:21.543Z,102727.12
2018-12-31T12:11:14.733Z,102729.03
2018-12-31T12:13:47.977Z,102718.53
2018-12-31T12:16:17.473Z,102724.08
2018-12-31T12:24:03.086Z,102703.63
2018-12-31T12:26:37.215Z,102706.95
2018-12-31T12:29:09.403Z,102704.03
2018-12-31T12:31:51.326Z,102701.20
2018-12-31T12:34:24.934Z,102695.25
2018-12-31T12:36:56.443Z,102702.16
2018-12-31T12:39:29.904Z,102703.50
2018-12-31T12:42:03.924Z,102695.09
2018-12-31T12:44:38.226Z,102692.19
2018-12-31T12:47:10.624Z,102682.50
2018-12-31T12:49:43.024Z,102688.62
2018-12-31T12:52:14.526Z,102683.69
2018-12-31T12:54:45.533Z,102677.19
2018-12-31T12:57:17.275Z,102675.59
2018-12-31T12:59:49.494Z,102674.11
2018-12-31T13:02:21.529Z,102671.66
2018-12-31T13:04:54.053Z,102669.73
2018-12-31T13:07:28.606Z,102668.77
2018-12-31T13:09:59.686Z,102668.88
2018-12-31T13:12:32.014Z,102666.30
2018-12-31T13:15:04.350Z,102658.98
2018-12-31T13:18:11.593Z,102658.59
2018-12-31T13:20:46.593Z,102660.61
2018-12-31T13:23:20.385Z,102662.52
2018-12-31T13:25:51.943Z,102650.98
2018-12-31T13:28:24.745Z,102656.64
2018-12-31T13:30:57.478Z,102655.46
2018-12-31T13:33:29.433Z,102645.97
2018-12-31T13:36:06.063Z,102646.06
2018-12-31T13:38:38.463Z,102642.88
2018-12-31T13:41:10.541Z,102642.86
2018-12-31T13:43:42.663Z,102638.71
2018-12-31T13:46:16.904Z,102637.85
2018-12-31T13:48:48.395Z,102632.20
2018-12-31T13:51:21.634Z,102632.17
2018-12-31T13:53:57.553Z,102634.00
2018-12-31T13:56:29.594Z,102625.23
2018-12-31T13:59:01.033Z,102620.61
2018-12-31T14:01:33.808Z,102618.76
2018-12-31T14:04:05.857Z,102619.39
2018-12-31T14:06:42.355Z,102617.23
2018-12-31T14:09:13.734Z,102619.09
2018-12-31T14:11:45.312Z,102612.56
2018-12-31T14:14:18.846Z,102607.09
2018-12-31T14:16:49.943Z,102615.20
2018-12-31T14:19:21.867Z,102615.23
2018-12-31T14:21:54.263Z,102616.34
2018-12-31T14:24:28.842Z,102611.17
2018-12-31T14:27:02.703Z,102606.80
2018-12-31T14:29:35.174Z,102619.73
2018-12-31T14:32:06.706Z,102617.22
2018-12-31T14:34:38.621Z,102619.53
2018-12-31T14:37:11.965Z,102622.78
2018-12-31T14:39:44.235Z,102622.24
2018-12-31T14:42:16.154Z,102632.16
2018-12-31T14:44:47.875Z,102628.06
2018-12-31T14:47:19.863Z,102632.56
2018-12-31T14:49:51.213Z,102638.12
2018-12-31T14:52:23.693Z,102629.36
2018-12-31T14:54:54.343Z,102625.62
2018-12-31T14:57:27.106Z,102625.50
2018-12-31T15:00:01.814Z,102626.31
2018-12-31T15:02:34.275Z,102625.79
2018-12-31T15:07:38.303Z,102634.33
2018-12-31T15:10:11.694Z,102633.07
2018-12-31T15:12:44.755Z,102640.77
2018-12-31T15:15:15.586Z,102636.59
2018-12-31T15:17:46.575Z,102637.35
2018-12-31T15:20:18.695Z,102647.52
2018-12-31T15:22:58.034Z,102643.67
2018-12-31T15:25:32.793Z,102655.86
2018-12-31T15:28:05.025Z,102657.07
2018-12-31T15:30:37.866Z,102655.46
2018-12-31T15:33:12.707Z,102656.95
2018-12-31T15:35:45.286Z,102657.09
2018-12-31T15:38:19.106Z,102661.77
2018-12-31T15:40:55.776Z,102662.65
2018-12-31T15:43:28.198Z,102653.45
2018-12-31T15:46:01.083Z,102658.38
2018-12-31T15:48:43.364Z,102660.39
2018-12-31T15:51:33.154Z,102655.70
2018-12-31T15:54:05.034Z,102666.47
2018-12-31T15:56:37.956Z,102662.54
2018-12-31T15:59:09.513Z,102677.17
2018-12-31T16:01:41.163Z,102675.65
2018-12-31T16:04:13.454Z,102668.16
2018-12-31T16:06:45.974Z,102676.48
2018-12-31T16:09:17.347Z,102674.55
2018-12-31T16:11:49.363Z,102677.95
2018-12-31T16:14:21.923Z,102682.45
2018-12-31T16:16:54.356Z,102686.70
2018-12-31T16:19:26.361Z,102686.70
2018-12-31T16:21:58.764Z,102686.91
2018-12-31T16:24:30.676Z,102683.45
2018-12-31T16:27:06.847Z,102684.24
2018-12-31T16:29:39.623Z,102685.75
2018-12-31T16:32:12.267Z,102680.94
2018-12-31T16:34:45.975Z,102681.19
2018-12-31T16:37:20.807Z,102684.16
2018-12-31T16:39:51.030Z,102682.31
2018-12-31T16:42:20.401Z,102684.77
2018-12-31T16:44:50.403Z,102683.52
2018-12-31T16:47:20.249Z,102693.47
2018-12-31T16:49:49.749Z,102697.36
2018-12-31T16:52:19.739Z,102699.05
2018-12-31T16:54:49.369Z,102692.64
2018-12-31T16:57:18.578Z,102697.73
2018-12-31T16:59:48.724Z,102698.23
2018-12-31T17:02:18.584Z,102693.56
2018-12-31T17:04:48.118Z,102700.69
2018-12-31T17:07:17.555Z,102703.22
2018-12-31T17:09:46.961Z,102697.16
2018-12-31T17:12:16.497Z,102700.22
2018-12-31T17:14:46.120Z,102707.11
2018-12-31T17:17:15.711Z,102710.66
2018-12-31T17:19:45.129Z,102710.63
2018-12-31T17:22:14.714Z,102713.66
2018-12-31T17:24:44.216Z,102713.11
2018-12-31T17:27:13.812Z,102713.37
2018-12-31T17:29:43.328Z,102720.05
2018-12-31T17:32:12.847Z,102714.10
2018-12-31T17:34:43.245Z,102714.91
2018-12-31T17:37:13.632Z,102717.05
2018-12-31T17:39:42.723Z,102725.80
2018-12-31T17:42:11.954Z,102727.63
2018-12-31T17:47:13.774Z,102725.73
2018-12-31T17:49:42.770Z,102726.86
2018-12-31T17:52:12.503Z,102729.51
2018-12-31T17:54:42.207Z,102726.83
2018-12-31T17:57:11.589Z,102734.99
2018-12-31T17:59:46.722Z,102727.09
2018-12-31T18:02:16.681Z,102738.48
2018-12-31T18:04:55.678Z,102740.23
2018-12-31T18:07:25.034Z,102744.75
2018-12-31T18:09:54.985Z,102742.72
2018-12-31T18:12:24.239Z,102748.23
2018-12-31T18:14:54.100Z,102736.18
2018-12-31T18:17:24.334Z,102738.45
2018-12-31T18:19:54.663Z,102736.75
2018-12-31T18:22:24.558Z,102744.47
2018-12-31T18:24:53.993Z,102736.56
2018-12-31T18:27:22.880Z,102743.08
2018-12-31T18:29:54.119Z,102743.91
2018-12-31T18:32:24.012Z,102743.03
2018-12-31T18:34:54.588Z,102745.73
2018-12-31T18:37:24.352Z,102747.63
2018-12-31T18:39:58.083Z,102751.87
2018-12-31T18:42:25.604Z,102752.16
2018-12-31T18:44:56.279Z,102753.82
2018-12-31T18:47:26.372Z,102752.88
2018-12-31T18:49:55.939Z,102756.44
2018-12-31T18:52:25.129Z,102763.23
2018-12-31T18:54:54.072Z,102761.99
2018-12-31T18:57:23.116Z,102765.05
2018-12-31T18:59:52.049Z,102768.91
2018-12-31T19:02:21.810Z,102765.46
2018-12-31T19:04:51.234Z,102771.93
2018-12-31T19:07:21.710Z,102775.30
2018-12-31T19:09:51.337Z,102780.00
2018-12-31T19:12:22.673Z,102782.66
2018-12-31T19:14:51.796Z,102781.73
2018-12-31T19:17:20.768Z,102782.52
2018-12-31T19:19:49.926Z,102796.16
2018-12-31T19:22:19.941Z,102790.23
2018-12-31T19:24:48.991Z,102795.89
2018-12-31T19:27:18.600Z,102795.27
2018-12-31T19:29:47.655Z,102797.69
2018-12-31T19:32:16.923Z,102798.28
2018-12-31T19:34:46.097Z,102798.27
2018-12-31T19:37:15.989Z,102795.47
2018-12-31T19:39:45.875Z,102790.94
2018-12-31T19:42:14.902Z,102795.49
2018-12-31T19:44:44.541Z,102792.98
2018-12-31T19:47:14.305Z,102787.09
2018-12-31T19:49:44.263Z,102790.42
2018-12-31T19:52:13.302Z,102789.47
2018-12-31T19:54:42.637Z,102792.08
2018-12-31T19:57:12.220Z,102799.00
2018-12-31T19:59:41.783Z,102794.14
2018-12-31T20:02:11.818Z,102798.25
2018-12-31T20:04:41.324Z,102802.25
2018-12-31T20:07:10.965Z,102803.19
2018-12-31T20:09:39.976Z,102803.40
2018-12-31T20:12:09.822Z,102804.66
2018-12-31T20:14:38.968Z,102807.45
2018-12-31T20:17:08.582Z,102812.63
2018-12-31T20:19:38.175Z,102806.31
2018-12-31T20:22:07.825Z,102807.02
2018-12-31T20:24:36.852Z,102812.58
2018-12-31T20:27:06.467Z,102806.03
2018-12-31T20:29:36.668Z,102812.91
2018-12-31T20:32:07.038Z,102815.79
2018-12-31T20:34:36.105Z,102810.88
2018-12-31T20:37:05.891Z,102813.20
2018-12-31T20:39:34.927Z,102819.58
2018-12-31T20:42:05.119Z,102813.67
2018-12-31T20:44:34.546Z,102821.78
2018-12-31T20:47:04.237Z,102811.27
2018-12-31T20:49:34.288Z,102821.88
2018-12-31T20:52:04.081Z,102823.16
2018-12-31T20:54:33.017Z,102818.13
2018-12-31T20:57:02.075Z,102822.41
2018-12-31T20:59:31.068Z,102826.91
2018-12-31T21:02:00.939Z,102822.59
2018-12-31T21:04:32.515Z,102826.39
2018-12-31T21:07:02.330Z,102828.30
2018-12-31T21:09:32.245Z,102823.73
2018-12-31T21:12:02.410Z,102828.04
2018-12-31T21:14:31.543Z,102828.58
2018-12-31T21:17:01.419Z,102820.78
2018-12-31T21:19:31.811Z,102820.69
2018-12-31T21:22:01.372Z,102824.34
2018-12-31T21:24:31.007Z,102820.38
2018-12-31T21:27:00.760Z,102824.48
2018-12-31T21:29:30.118Z,102822.52
2018-12-31T21:31:59.556Z,102827.00
2018-12-31T21:34:28.980Z,102826.53
2018-12-31T21:37:04.632Z,102832.41
2018-12-31T21:39:34.760Z,102826.22
2018-12-31T21:42:04.095Z,102824.88
2018-12-31T21:44:33.745Z,102823.16
2018-12-31T21:47:03.517Z,102824.67
2018-12-31T21:49:32.736Z,102827.33
2018-12-31T21:52:03.292Z,102831.80
2018-12-31T21:54:32.824Z,102833.42
2018-12-31T21:57:02.536Z,102834.31
2018-12-31T21:59:32.141Z,102831.97
2018-12-31T22:02:01.622Z,102833.25
2018-12-31T22:04:31.232Z,102832.28
2018-12-31T22:07:00.720Z,102840.21
2018-12-31T22:09:30.485Z,102835.14
2018-12-31T22:11:59.940Z,102837.63
2018-12-31T22:14:29.191Z,102833.83
2018-12-31T22:16:58.362Z,102839.41
2018-12-31T22:19:27.872Z,102842.14
2018-12-31T22:21:57.768Z,102835.09
2018-12-31T22:24:27.251Z,102841.58
2018-12-31T22:26:56.675Z,102833.41
2018-12-31T22:29:26.408Z,102843.20
2018-12-31T22:31:55.896Z,102840.47
2018-12-31T22:34:26.013Z,102836.76
2018-12-31T22:36:55.608Z,102837.63
2018-12-31T22:39:25.217Z,102843.20
2018-12-31T22:41:55.035Z,102841.06
2018-12-31T22:44:24.527Z,102841.31
2018-12-31T22:46:53.943Z,102841.09
2018-12-31T22:49:23.550Z,102835.65
2018-12-31T22:51:53.240Z,102836.02
2018-12-31T22:54:22.751Z,102835.90
2018-12-31T22:56:52.406Z,102836.02
2018-12-31T22:59:22.031Z,102832.56
2018-12-31T23:01:51.869Z,102827.52
2018-12-31T23:04:21.507Z,102827.27
2018-12-31T23:06:52.319Z,102825.66
2018-12-31T23:09:21.612Z,102830.48
2018-12-31T23:11:51.215Z,102828.00
2018-12-31T23:14:20.858Z,102826.55
2018-12-31T23:16:50.594Z,102826.80
2018-12-31T23:19:20.187Z,102820.11
2018-12-31T23:21:50.187Z,102827.16
2018-12-31T23:24:19.978Z,102817.75
2018-12-31T23:26:49.416Z,102827.30
2018-12-31T23:29:19.087Z,102830.88
2018-12-31T23:31:48.385Z,102819.37
2018-12-31T23:34:17.891Z,102825.55
2018-12-31T23:36:47.302Z,102822.20
2018-12-31T23:39:16.872Z,102829.89
2018-12-31T23:41:46.393Z,102824.80
2018-12-31T23:44:16.471Z,102821.71
2018-12-31T23:46:46.281Z,102823.56
2018-12-31T23:49:15.712Z,102816.88
2018-12-31T23:51:45.372Z,102826.03
2018-12-31T23:54:14.984Z,102825.28
2018-12-31T23:56:44.365Z,102824.53
2018-12-31T23:59:14.213Z,102826.50
